Terminal Aerodrome Forecast
Issued by NWS Cleveland, OH

Home | Current Version | Previous Version | Text Only | Print | Product List | Glossary Off
Versions: 1 2 3 4 5 6 7 8 9 10 11 12 13 14 15 16 17

000
FTUS41 KCLE 200532
TAFCAK
TAF
KCAK 200532Z 2006/2106 00000KT P6SM FEW200
     FM200900 00000KT 5SM BR FEW250
     FM201300 22004KT P6SM SCT250
     FM201600 24007KT P6SM SCT045 BKN200
     FM201900 25008KT P6SM -SHRA VCTS BKN070CB
     FM210400 25007KT P6SM BKN070
     FM210500 26005KT 5SM BR SCT060=

USA.gov is the U.S. government's official web portal to all federal, state and local government web resources and services.